sensor_id;sensor_type;location;lat;lon;timestamp;temperature;humidity
74484;SHT31;62942;52.462;10.846;2022-10-23T00:00:04;10.8;95.1
74484;SHT31;62942;52.462;10.846;2022-10-23T00:01:12;10.8;95.1
74484;SHT31;62942;52.462;10.846;2022-10-23T00:02:22;10.8;95.1
74484;SHT31;62942;52.462;10.846;2022-10-23T00:03:22;10.7;95
74484;SHT31;62942;52.462;10.846;2022-10-23T00:04:32;10.7;95.1
74484;SHT31;62942;52.462;10.846;2022-10-23T00:05:42;10.7;95
74484;SHT31;62942;52.462;10.846;2022-10-23T00:06:42;10.7;95.1
74484;SHT31;62942;52.462;10.846;2022-10-23T00:07:52;10.6;95.1
74484;SHT31;62942;52.462;10.846;2022-10-23T00:09:03;10.6;95.2
74484;SHT31;62942;52.462;10.846;2022-10-23T00:10:02;10.6;95.2
74484;SHT31;62942;52.462;10.846;2022-10-23T00:11:13;10.6;95.3
74484;SHT31;62942;52.462;10.846;2022-10-23T00:12:22;10.6;95.3
74484;SHT31;62942;52.462;10.846;2022-10-23T00:13:32;10.6;95.3
74484;SHT31;62942;52.462;10.846;2022-10-23T00:14:42;10.6;95.4
74484;SHT31;62942;52.462;10.846;2022-10-23T00:15:42;10.6;95.4
74484;SHT31;62942;52.462;10.846;2022-10-23T00:16:52;10.6;95.4
74484;SHT31;62942;52.462;10.846;2022-10-23T00:18:02;10.6;95.4
74484;SHT31;62942;52.462;10.846;2022-10-23T00:19:12;10.6;95.5
74484;SHT31;62942;52.462;10.846;2022-10-23T00:20:12;10.6;95.6
74484;SHT31;62942;52.462;10.846;2022-10-23T00:21:22;10.6;95.6
74484;SHT31;62942;52.462;10.846;2022-10-23T00:22:32;10.7;95.6
74484;SHT31;62942;52.462;10.846;2022-10-23T00:23:32;10.7;95.6
74484;SHT31;62942;52.462;10.846;2022-10-23T00:24:42;10.7;95.7
74484;SHT31;62942;52.462;10.846;2022-10-23T00:25:52;10.7;95.7
74484;SHT31;62942;52.462;10.846;2022-10-23T00:26:52;10.7;95.8
74484;SHT31;62942;52.462;10.846;2022-10-23T00:28:02;10.7;95.8
74484;SHT31;62942;52.462;10.846;2022-10-23T00:29:02;10.7;95.8
74484;SHT31;62942;52.462;10.846;2022-10-23T00:30:02;10.7;95.8
74484;SHT31;62942;52.462;10.846;2022-10-23T00:31:12;10.7;95.8
74484;SHT31;62942;52.462;10.846;2022-10-23T00:32:22;10.7;95.7
74484;SHT31;62942;52.462;10.846;2022-10-23T00:33:22;10.7;95.7
74484;SHT31;62942;52.462;10.846;2022-10-23T00:34:32;10.7;95.7
74484;SHT31;62942;52.462;10.846;2022-10-23T00:35:42;10.6;95.7
74484;SHT31;62942;52.462;10.846;2022-10-23T00:36:42;10.6;95.7
74484;SHT31;62942;52.462;10.846;2022-10-23T00:37:52;10.6;95.6
74484;SHT31;62942;52.462;10.846;2022-10-23T00:39:02;10.6;95.6
74484;SHT31;62942;52.462;10.846;2022-10-23T00:40:02;10.5;95.6
74484;SHT31;62942;52.462;10.846;2022-10-23T00:41:13;10.5;95.5
74484;SHT31;62942;52.462;10.846;2022-10-23T00:42:22;10.5;95.5
74484;SHT31;62942;52.462;10.846;2022-10-23T00:43:22;10.5;95.5
74484;SHT31;62942;52.462;10.846;2022-10-23T00:45:32;10.4;95.6
74484;SHT31;62942;52.462;10.846;2022-10-23T00:45:36;10.4;95.6
74484;SHT31;62942;52.462;10.846;2022-10-23T00:46:42;10.4;95.6
74484;SHT31;62942;52.462;10.846;2022-10-23T00:47:52;10.4;95.7
74484;SHT31;62942;52.462;10.846;2022-10-23T00:48:52;10.4;95.8
74484;SHT31;62942;52.462;10.846;2022-10-23T00:50:02;10.4;95.8
74484;SHT31;62942;52.462;10.846;2022-10-23T00:51:02;10.4;95.9
74484;SHT31;62942;52.462;10.846;2022-10-23T00:52:12;10.5;95.9
74484;SHT31;62942;52.462;10.846;2022-10-23T00:53:22;10.5;95.9
74484;SHT31;62942;52.462;10.846;2022-10-23T00:54:23;10.5;96
74484;SHT31;62942;52.462;10.846;2022-10-23T00:55:32;10.5;96.1
74484;SHT31;62942;52.462;10.846;2022-10-23T00:56:42;10.6;96.1
74484;SHT31;62942;52.462;10.846;2022-10-23T00:57:52;10.6;96.1
74484;SHT31;62942;52.462;10.846;2022-10-23T00:58:52;10.6;96.1
74484;SHT31;62942;52.462;10.846;2022-10-23T00:59:52;10.6;96.1
74484;SHT31;62942;52.462;10.846;2022-10-23T01:01:13;10.7;96.2
74484;SHT31;62942;52.462;10.846;2022-10-23T01:02:12;10.7;96.2
74484;SHT31;62942;52.462;10.846;2022-10-23T01:03:22;10.7;96.2
74484;SHT31;62942;52.462;10.846;2022-10-23T01:04:32;10.8;96.2
74484;SHT31;62942;52.462;10.846;2022-10-23T01:05:43;10.8;96.2
74484;SHT31;62942;52.462;10.846;2022-10-23T01:06:54;10.8;96.2
74484;SHT31;62942;52.462;10.846;2022-10-23T01:08:04;10.8;96.2
74484;SHT31;62942;52.462;10.846;2022-10-23T01:09:14;10.8;96.2
74484;SHT31;62942;52.462;10.846;2022-10-23T01:10:22;10.8;96.1
74484;SHT31;62942;52.462;10.846;2022-10-23T01:11:23;10.9;96.1
74484;SHT31;62942;52.462;10.846;2022-10-23T01:12:34;10.9;96.1
74484;SHT31;62942;52.462;10.846;2022-10-23T01:13:33;10.9;96.1
74484;SHT31;62942;52.462;10.846;2022-10-23T01:14:43;10.9;96
74484;SHT31;62942;52.462;10.846;2022-10-23T01:15:52;10.9;95.9
74484;SHT31;62942;52.462;10.846;2022-10-23T01:17:02;10.9;95.9
74484;SHT31;62942;52.462;10.846;2022-10-23T01:18:04;10.9;95.8
74484;SHT31;62942;52.462;10.846;2022-10-23T01:19:03;10.9;95.8
74484;SHT31;62942;52.462;10.846;2022-10-23T01:20:18;10.9;95.7
74484;SHT31;62942;52.462;10.846;2022-10-23T01:21:22;10.9;95.7
74484;SHT31;62942;52.462;10.846;2022-10-23T01:22:36;10.9;95.6
74484;SHT31;62942;52.462;10.846;2022-10-23T01:24:00;10.8;95.7
74484;SHT31;62942;52.462;10.846;2022-10-23T01:24:43;10.8;95.6
74484;SHT31;62942;52.462;10.846;2022-10-23T01:25:56;10.8;95.6
74484;SHT31;62942;52.462;10.846;2022-10-23T01:27:18;10.8;95.6
74484;SHT31;62942;52.462;10.846;2022-10-23T01:28:13;10.8;95.6
74484;SHT31;62942;52.462;10.846;2022-10-23T01:29:13;10.8;95.6
74484;SHT31;62942;52.462;10.846;2022-10-23T01:30:22;10.8;95.6
74484;SHT31;62942;52.462;10.846;2022-10-23T01:31:32;10.8;95.6
74484;SHT31;62942;52.462;10.846;2022-10-23T01:32:43;10.8;95.6
74484;SHT31;62942;52.462;10.846;2022-10-23T01:33:43;10.8;95.6
74484;SHT31;62942;52.462;10.846;2022-10-23T01:34:54;10.8;95.6
74484;SHT31;62942;52.462;10.846;2022-10-23T01:35:52;10.7;95.6
74484;SHT31;62942;52.462;10.846;2022-10-23T01:37:02;10.7;95.6
74484;SHT31;62942;52.462;10.846;2022-10-23T01:38:12;10.7;95.7
74484;SHT31;62942;52.462;10.846;2022-10-23T01:39:22;10.7;95.8
74484;SHT31;62942;52.462;10.846;2022-10-23T01:40:32;10.7;95.7
74484;SHT31;62942;52.462;10.846;2022-10-23T01:41:32;10.7;95.7
74484;SHT31;62942;52.462;10.846;2022-10-23T01:42:43;10.7;95.7
74484;SHT31;62942;52.462;10.846;2022-10-23T01:43:43;10.7;95.7
74484;SHT31;62942;52.462;10.846;2022-10-23T01:44:52;10.7;95.7
74484;SHT31;62942;52.462;10.846;2022-10-23T01:45:52;10.6;95.7
74484;SHT31;62942;52.462;10.846;2022-10-23T01:47:02;10.7;95.6
74484;SHT31;62942;52.462;10.846;2022-10-23T01:48:12;10.6;95.7
74484;SHT31;62942;52.462;10.846;2022-10-23T01:49:12;10.6;95.7
74484;SHT31;62942;52.462;10.846;2022-10-23T01:50:12;10.6;95.7
74484;SHT31;62942;52.462;10.846;2022-10-23T01:51:12;10.6;95.7
74484;SHT31;62942;52.462;10.846;2022-10-23T01:52:22;10.6;95.7
74484;SHT31;62942;52.462;10.846;2022-10-23T01:53:22;10.6;95.7
74484;SHT31;62942;52.462;10.846;2022-10-23T01:54:32;10.6;95.8
74484;SHT31;62942;52.462;10.846;2022-10-23T01:55:42;10.6;95.8
74484;SHT31;62942;52.462;10.846;2022-10-23T01:56:52;10.6;95.8
74484;SHT31;62942;52.462;10.846;2022-10-23T01:57:52;10.6;95.8
74484;SHT31;62942;52.462;10.846;2022-10-23T01:59:02;10.6;95.9
74484;SHT31;62942;52.462;10.846;2022-10-23T02:00:03;10.6;95.9
74484;SHT31;62942;52.462;10.846;2022-10-23T02:01:12;10.6;95.9
74484;SHT31;62942;52.462;10.846;2022-10-23T02:02:12;10.6;95.9
74484;SHT31;62942;52.462;10.846;2022-10-23T02:03:22;10.6;96
74484;SHT31;62942;52.462;10.846;2022-10-23T02:04:33;10.6;96
74484;SHT31;62942;52.462;10.846;2022-10-23T02:05:32;10.6;96
74484;SHT31;62942;52.462;10.846;2022-10-23T02:06:32;10.5;96
74484;SHT31;62942;52.462;10.846;2022-10-23T02:07:42;10.5;95.9
74484;SHT31;62942;52.462;10.846;2022-10-23T02:08:42;10.5;96
74484;SHT31;62942;52.462;10.846;2022-10-23T02:09:52;10.5;96
74484;SHT31;62942;52.462;10.846;2022-10-23T02:11:03;10.5;96
74484;SHT31;62942;52.462;10.846;2022-10-23T02:12:03;10.5;96
74484;SHT31;62942;52.462;10.846;2022-10-23T02:13:13;10.5;96
74484;SHT31;62942;52.462;10.846;2022-10-23T02:14:23;10.5;96
74484;SHT31;62942;52.462;10.846;2022-10-23T02:15:23;10.5;96
74484;SHT31;62942;52.462;10.846;2022-10-23T02:16:34;10.5;96
74484;SHT31;62942;52.462;10.846;2022-10-23T02:17:44;10.5;96
74484;SHT31;62942;52.462;10.846;2022-10-23T02:18:43;10.5;96
74484;SHT31;62942;52.462;10.846;2022-10-23T02:19:53;10.4;95.9
74484;SHT31;62942;52.462;10.846;2022-10-23T02:21:03;10.4;95.9
74484;SHT31;62942;52.462;10.846;2022-10-23T02:22:13;10.3;95.8
74484;SHT31;62942;52.462;10.846;2022-10-23T02:23:14;10.3;95.8
74484;SHT31;62942;52.462;10.846;2022-10-23T02:24:23;10.3;95.8
74484;SHT31;62942;52.462;10.846;2022-10-23T02:25:23;10.3;95.7
74484;SHT31;62942;52.462;10.846;2022-10-23T02:26:32;10.2;95.7
74484;SHT31;62942;52.462;10.846;2022-10-23T02:27:43;10.2;95.6
74484;SHT31;62942;52.462;10.846;2022-10-23T02:28:42;10.1;95.6
74484;SHT31;62942;52.462;10.846;2022-10-23T02:29:52;10.1;95.5
74484;SHT31;62942;52.462;10.846;2022-10-23T02:30:52;10;95.4
74484;SHT31;62942;52.462;10.846;2022-10-23T02:32:01;10;95.4
74484;SHT31;62942;52.462;10.846;2022-10-23T02:33:12;10;95.3
74484;SHT31;62942;52.462;10.846;2022-10-23T02:34:11;10;95.4
74484;SHT31;62942;52.462;10.846;2022-10-23T02:35:22;9.9;95.3
74484;SHT31;62942;52.462;10.846;2022-10-23T02:36:32;9.9;95.3
74484;SHT31;62942;52.462;10.846;2022-10-23T02:37:32;9.8;95.3
74484;SHT31;62942;52.462;10.846;2022-10-23T02:38:42;9.8;95.3
74484;SHT31;62942;52.462;10.846;2022-10-23T02:39:42;9.7;95.2
74484;SHT31;62942;52.462;10.846;2022-10-23T02:40:51;9.7;95.3
74484;SHT31;62942;52.462;10.846;2022-10-23T02:41:52;9.7;95.3
74484;SHT31;62942;52.462;10.846;2022-10-23T02:43:02;9.6;95.3
74484;SHT31;62942;52.462;10.846;2022-10-23T02:44:31;9.6;95.3
74484;SHT31;62942;52.462;10.846;2022-10-23T02:45:14;9.6;95.3
74484;SHT31;62942;52.462;10.846;2022-10-23T02:46:23;9.5;95.3
74484;SHT31;62942;52.462;10.846;2022-10-23T02:47:27;9.5;95.4
74484;SHT31;62942;52.462;10.846;2022-10-23T02:48:32;9.5;95.4
74484;SHT31;62942;52.462;10.846;2022-10-23T02:49:33;9.4;95.4
74484;SHT31;62942;52.462;10.846;2022-10-23T02:50:42;9.4;95.5
74484;SHT31;62942;52.462;10.846;2022-10-23T02:51:44;9.4;95.5
74484;SHT31;62942;52.462;10.846;2022-10-23T02:52:53;9.3;95.5
74484;SHT31;62942;52.462;10.846;2022-10-23T02:53:53;9.3;95.5
74484;SHT31;62942;52.462;10.846;2022-10-23T02:55:04;9.3;95.6
74484;SHT31;62942;52.462;10.846;2022-10-23T02:56:02;9.3;95.6
74484;SHT31;62942;52.462;10.846;2022-10-23T02:57:02;9.3;95.6
74484;SHT31;62942;52.462;10.846;2022-10-23T02:58:03;9.2;95.7
74484;SHT31;62942;52.462;10.846;2022-10-23T02:59:13;9.2;95.7
74484;SHT31;62942;52.462;10.846;2022-10-23T03:00:12;9.2;95.8
74484;SHT31;62942;52.462;10.846;2022-10-23T03:01:23;9.2;95.9
74484;SHT31;62942;52.462;10.846;2022-10-23T03:02:34;9.2;96
74484;SHT31;62942;52.462;10.846;2022-10-23T03:03:43;9.3;96.1
74484;SHT31;62942;52.462;10.846;2022-10-23T03:04:41;9.2;96.1
74484;SHT31;62942;52.462;10.846;2022-10-23T03:05:41;9.3;96.2
74484;SHT31;62942;52.462;10.846;2022-10-23T03:06:41;9.2;96.3
74484;SHT31;62942;52.462;10.846;2022-10-23T03:07:51;9.2;96.3
74484;SHT31;62942;52.462;10.846;2022-10-23T03:08:52;9.2;96.4
74484;SHT31;62942;52.462;10.846;2022-10-23T03:10:01;9.2;96.5
74484;SHT31;62942;52.462;10.846;2022-10-23T03:11:01;9.2;96.5
74484;SHT31;62942;52.462;10.846;2022-10-23T03:12:11;9.2;96.6
74484;SHT31;62942;52.462;10.846;2022-10-23T03:13:11;9.2;96.6
74484;SHT31;62942;52.462;10.846;2022-10-23T03:14:21;9.2;96.7
74484;SHT31;62942;52.462;10.846;2022-10-23T03:15:31;9.2;96.7
74484;SHT31;62942;52.462;10.846;2022-10-23T03:16:32;9.3;96.7
74484;SHT31;62942;52.462;10.846;2022-10-23T03:17:41;9.3;96.8
74484;SHT31;62942;52.462;10.846;2022-10-23T03:18:41;9.3;96.8
74484;SHT31;62942;52.462;10.846;2022-10-23T03:19:51;9.3;96.9
74484;SHT31;62942;52.462;10.846;2022-10-23T03:20:51;9.3;96.9
74484;SHT31;62942;52.462;10.846;2022-10-23T03:22:01;9.3;97
74484;SHT31;62942;52.462;10.846;2022-10-23T03:23:01;9.4;97
74484;SHT31;62942;52.462;10.846;2022-10-23T03:24:01;9.3;97.1
74484;SHT31;62942;52.462;10.846;2022-10-23T03:25:11;9.3;97.1
74484;SHT31;62942;52.462;10.846;2022-10-23T03:26:11;9.3;97.1
74484;SHT31;62942;52.462;10.846;2022-10-23T03:27:21;9.3;97.1
74484;SHT31;62942;52.462;10.846;2022-10-23T03:28:22;9.2;97.1
74484;SHT31;62942;52.462;10.846;2022-10-23T03:29:21;9.3;97.2
74484;SHT31;62942;52.462;10.846;2022-10-23T03:30:31;9.2;97.1
74484;SHT31;62942;52.462;10.846;2022-10-23T03:31:31;9.2;97.2
74484;SHT31;62942;52.462;10.846;2022-10-23T03:32:31;9.2;97.1
74484;SHT31;62942;52.462;10.846;2022-10-23T03:33:31;9.2;97.1
74484;SHT31;62942;52.462;10.846;2022-10-23T03:34:31;9.3;97.1
74484;SHT31;62942;52.462;10.846;2022-10-23T03:35:41;9.2;97.1
74484;SHT31;62942;52.462;10.846;2022-10-23T03:36:51;9.3;97.1
74484;SHT31;62942;52.462;10.846;2022-10-23T03:37:51;9.2;97.1
74484;SHT31;62942;52.462;10.846;2022-10-23T03:39:02;9.2;97.2
74484;SHT31;62942;52.462;10.846;2022-10-23T03:40:02;9.2;97.1
74484;SHT31;62942;52.462;10.846;2022-10-23T03:41:11;9.2;97.2
74484;SHT31;62942;52.462;10.846;2022-10-23T03:42:11;9.2;97.2
74484;SHT31;62942;52.462;10.846;2022-10-23T03:43:21;9.2;97.2
74484;SHT31;62942;52.462;10.846;2022-10-23T03:44:31;9.2;97.2
74484;SHT31;62942;52.462;10.846;2022-10-23T03:45:41;9.2;97.2
74484;SHT31;62942;52.462;10.846;2022-10-23T03:46:41;9.2;97.2
74484;SHT31;62942;52.462;10.846;2022-10-23T03:47:41;9.2;97.2
74484;SHT31;62942;52.462;10.846;2022-10-23T03:48:41;9.1;97.2
74484;SHT31;62942;52.462;10.846;2022-10-23T03:49:51;9.1;97.2
74484;SHT31;62942;52.462;10.846;2022-10-23T03:51:01;9.1;97.2
74484;SHT31;62942;52.462;10.846;2022-10-23T03:52:01;9.1;97.2
74484;SHT31;62942;52.462;10.846;2022-10-23T03:53:11;9.1;97.2
74484;SHT31;62942;52.462;10.846;2022-10-23T03:54:11;9.1;97.2
74484;SHT31;62942;52.462;10.846;2022-10-23T03:55:13;9.1;97.2
74484;SHT31;62942;52.462;10.846;2022-10-23T03:56:21;9.1;97.2
74484;SHT31;62942;52.462;10.846;2022-10-23T03:57:21;9.1;97.2
74484;SHT31;62942;52.462;10.846;2022-10-23T03:58:31;9.2;97.2
74484;SHT31;62942;52.462;10.846;2022-10-23T03:59:41;9.2;97.2
74484;SHT31;62942;52.462;10.846;2022-10-23T04:00:41;9.2;97.2
74484;SHT31;62942;52.462;10.846;2022-10-23T04:01:41;9.2;97.2
74484;SHT31;62942;52.462;10.846;2022-10-23T04:02:41;9.2;97.2
74484;SHT31;62942;52.462;10.846;2022-10-23T04:03:51;9.2;97.2
74484;SHT31;62942;52.462;10.846;2022-10-23T04:04:51;9.2;97.3
74484;SHT31;62942;52.462;10.846;2022-10-23T04:06:01;9.2;97.3
74484;SHT31;62942;52.462;10.846;2022-10-23T04:07:11;9.1;97.3
74484;SHT31;62942;52.462;10.846;2022-10-23T04:08:11;9.1;97.2
74484;SHT31;62942;52.462;10.846;2022-10-23T04:09:11;9.1;97.3
74484;SHT31;62942;52.462;10.846;2022-10-23T04:10:21;9;97.3
74484;SHT31;62942;52.462;10.846;2022-10-23T04:11:21;9;97.2
74484;SHT31;62942;52.462;10.846;2022-10-23T04:12:32;9;97.2
74484;SHT31;62942;52.462;10.846;2022-10-23T04:13:41;9;97.1
74484;SHT31;62942;52.462;10.846;2022-10-23T04:14:41;9;97.1
74484;SHT31;62942;52.462;10.846;2022-10-23T04:15:46;8.9;97
74484;SHT31;62942;52.462;10.846;2022-10-23T04:16:41;8.9;97
74484;SHT31;62942;52.462;10.846;2022-10-23T04:17:51;8.9;96.9
74484;SHT31;62942;52.462;10.846;2022-10-23T04:18:51;8.9;96.9
74484;SHT31;62942;52.462;10.846;2022-10-23T04:19:51;8.9;96.8
74484;SHT31;62942;52.462;10.846;2022-10-23T04:20:51;8.9;96.8
74484;SHT31;62942;52.462;10.846;2022-10-23T04:21:51;8.9;96.9
74484;SHT31;62942;52.462;10.846;2022-10-23T04:22:51;8.9;96.8
74484;SHT31;62942;52.462;10.846;2022-10-23T04:24:01;8.9;96.9
74484;SHT31;62942;52.462;10.846;2022-10-23T04:25:01;8.9;96.9
74484;SHT31;62942;52.462;10.846;2022-10-23T04:26:01;8.8;96.9
74484;SHT31;62942;52.462;10.846;2022-10-23T04:27:11;8.7;96.9
74484;SHT31;62942;52.462;10.846;2022-10-23T04:28:21;8.7;96.9
74484;SHT31;62942;52.462;10.846;2022-10-23T04:29:21;8.7;96.9
74484;SHT31;62942;52.462;10.846;2022-10-23T04:30:31;8.6;96.8
74484;SHT31;62942;52.462;10.846;2022-10-23T04:31:41;8.6;96.7
74484;SHT31;62942;52.462;10.846;2022-10-23T04:32:41;8.5;96.6
74484;SHT31;62942;52.462;10.846;2022-10-23T04:33:41;8.5;96.6
74484;SHT31;62942;52.462;10.846;2022-10-23T04:34:51;8.5;96.5
74484;SHT31;62942;52.462;10.846;2022-10-23T04:36:01;8.4;96.5
74484;SHT31;62942;52.462;10.846;2022-10-23T04:37:01;8.4;96.5
74484;SHT31;62942;52.462;10.846;2022-10-23T04:38:11;8.4;96.5
74484;SHT31;62942;52.462;10.846;2022-10-23T04:39:11;8.4;96.6
74484;SHT31;62942;52.462;10.846;2022-10-23T04:40:11;8.4;96.6
74484;SHT31;62942;52.462;10.846;2022-10-23T04:41:21;8.4;96.7
74484;SHT31;62942;52.462;10.846;2022-10-23T04:42:31;8.4;96.7
74484;SHT31;62942;52.462;10.846;2022-10-23T04:43:31;8.4;96.8
74484;SHT31;62942;52.462;10.846;2022-10-23T04:44:41;8.4;96.8
74484;SHT31;62942;52.462;10.846;2022-10-23T04:45:41;8.4;96.8
74484;SHT31;62942;52.462;10.846;2022-10-23T04:46:51;8.3;96.9
74484;SHT31;62942;52.462;10.846;2022-10-23T04:48:01;8.3;96.9
74484;SHT31;62942;52.462;10.846;2022-10-23T04:49:11;8.3;96.9
74484;SHT31;62942;52.462;10.846;2022-10-23T04:50:11;8.3;96.9
74484;SHT31;62942;52.462;10.846;2022-10-23T04:51:21;8.3;96.9
74484;SHT31;62942;52.462;10.846;2022-10-23T04:52:31;8.2;96.9
74484;SHT31;62942;52.462;10.846;2022-10-23T04:53:31;8.2;96.9
74484;SHT31;62942;52.462;10.846;2022-10-23T04:54:41;8.2;96.9
74484;SHT31;62942;52.462;10.846;2022-10-23T04:55:47;8.2;96.9
74484;SHT31;62942;52.462;10.846;2022-10-23T04:56:51;8.2;96.9
74484;SHT31;62942;52.462;10.846;2022-10-23T04:57:51;8.2;96.9
74484;SHT31;62942;52.462;10.846;2022-10-23T04:59:01;8.3;96.9
74484;SHT31;62942;52.462;10.846;2022-10-23T05:00:12;8.3;97
74484;SHT31;62942;52.462;10.846;2022-10-23T05:01:21;8.3;97.1
74484;SHT31;62942;52.462;10.846;2022-10-23T05:02:21;8.2;97.1
74484;SHT31;62942;52.462;10.846;2022-10-23T05:03:31;8.2;97.1
74484;SHT31;62942;52.462;10.846;2022-10-23T05:04:31;8.2;97.1
74484;SHT31;62942;52.462;10.846;2022-10-23T05:05:41;8.1;97.2
74484;SHT31;62942;52.462;10.846;2022-10-23T05:06:51;8.1;97.2
74484;SHT31;62942;52.462;10.846;2022-10-23T05:07:51;8.2;97.2
74484;SHT31;62942;52.462;10.846;2022-10-23T05:09:01;8.1;97.1
74484;SHT31;62942;52.462;10.846;2022-10-23T05:10:01;8.1;97.2
74484;SHT31;62942;52.462;10.846;2022-10-23T05:11:01;8.1;97.1
74484;SHT31;62942;52.462;10.846;2022-10-23T05:12:11;8;97.2
74484;SHT31;62942;52.462;10.846;2022-10-23T05:13:21;8;97.2
74484;SHT31;62942;52.462;10.846;2022-10-23T05:14:21;8;97.2
74484;SHT31;62942;52.462;10.846;2022-10-23T05:15:31;8;97.2
74484;SHT31;62942;52.462;10.846;2022-10-23T05:16:42;7.9;97.1
74484;SHT31;62942;52.462;10.846;2022-10-23T05:17:52;7.9;97.2
74484;SHT31;62942;52.462;10.846;2022-10-23T05:19:01;7.9;97.1
74484;SHT31;62942;52.462;10.846;2022-10-23T05:20:12;7.9;97.1
74484;SHT31;62942;52.462;10.846;2022-10-23T05:21:13;7.9;97.1
74484;SHT31;62942;52.462;10.846;2022-10-23T05:22:22;7.9;97
74484;SHT31;62942;52.462;10.846;2022-10-23T05:23:31;7.8;97
74484;SHT31;62942;52.462;10.846;2022-10-23T05:24:41;7.8;97
74484;SHT31;62942;52.462;10.846;2022-10-23T05:25:51;7.8;97
74484;SHT31;62942;52.462;10.846;2022-10-23T05:27:01;7.8;97
74484;SHT31;62942;52.462;10.846;2022-10-23T05:28:01;7.8;97
74484;SHT31;62942;52.462;10.846;2022-10-23T05:29:11;7.8;97.1
74484;SHT31;62942;52.462;10.846;2022-10-23T05:30:21;7.7;97
74484;SHT31;62942;52.462;10.846;2022-10-23T05:31:21;7.7;97
74484;SHT31;62942;52.462;10.846;2022-10-23T05:32:21;7.7;97
74484;SHT31;62942;52.462;10.846;2022-10-23T05:33:31;7.7;97.1
74484;SHT31;62942;52.462;10.846;2022-10-23T05:34:41;7.7;97.1
74484;SHT31;62942;52.462;10.846;2022-10-23T05:35:51;7.7;97.1
74484;SHT31;62942;52.462;10.846;2022-10-23T05:37:01;7.7;97.1
74484;SHT31;62942;52.462;10.846;2022-10-23T05:38:11;7.7;97.1
74484;SHT31;62942;52.462;10.846;2022-10-23T05:39:21;7.7;97.1
74484;SHT31;62942;52.462;10.846;2022-10-23T05:40:21;7.7;97.2
74484;SHT31;62942;52.462;10.846;2022-10-23T05:41:31;7.7;97.2
74484;SHT31;62942;52.462;10.846;2022-10-23T05:42:41;7.7;97.2
74484;SHT31;62942;52.462;10.846;2022-10-23T05:43:51;7.7;97.2
74484;SHT31;62942;52.462;10.846;2022-10-23T05:45:01;7.7;97.2
74484;SHT31;62942;52.462;10.846;2022-10-23T05:46:11;7.7;97.3
74484;SHT31;62942;52.462;10.846;2022-10-23T05:47:21;7.7;97.3
74484;SHT31;62942;52.462;10.846;2022-10-23T05:48:21;7.8;97.3
74484;SHT31;62942;52.462;10.846;2022-10-23T05:49:31;7.8;97.3
74484;SHT31;62942;52.462;10.846;2022-10-23T05:50:41;7.8;97.3
74484;SHT31;62942;52.462;10.846;2022-10-23T05:51:51;7.8;97.4
74484;SHT31;62942;52.462;10.846;2022-10-23T05:53:01;7.8;97.5
74484;SHT31;62942;52.462;10.846;2022-10-23T05:54:11;7.9;97.5
74484;SHT31;62942;52.462;10.846;2022-10-23T05:55:21;7.9;97.5
74484;SHT31;62942;52.462;10.846;2022-10-23T05:56:31;7.9;97.6
74484;SHT31;62942;52.462;10.846;2022-10-23T05:57:41;7.9;97.6
74484;SHT31;62942;52.462;10.846;2022-10-23T05:58:41;7.9;97.6
74484;SHT31;62942;52.462;10.846;2022-10-23T05:59:51;7.9;97.6
74484;SHT31;62942;52.462;10.846;2022-10-23T06:01:03;7.8;97.7
74484;SHT31;62942;52.462;10.846;2022-10-23T06:02:11;7.8;97.7
74484;SHT31;62942;52.462;10.846;2022-10-23T06:03:11;7.8;97.7
74484;SHT31;62942;52.462;10.846;2022-10-23T06:04:21;7.8;97.7
74484;SHT31;62942;52.462;10.846;2022-10-23T06:05:31;7.8;97.7
74484;SHT31;62942;52.462;10.846;2022-10-23T06:06:41;7.8;97.8
74484;SHT31;62942;52.462;10.846;2022-10-23T06:07:41;7.8;97.8
74484;SHT31;62942;52.462;10.846;2022-10-23T06:08:41;7.9;97.8
74484;SHT31;62942;52.462;10.846;2022-10-23T06:09:51;7.9;97.8
74484;SHT31;62942;52.462;10.846;2022-10-23T06:11:05;7.9;97.8
74484;SHT31;62942;52.462;10.846;2022-10-23T06:12:11;7.9;97.9
74484;SHT31;62942;52.462;10.846;2022-10-23T06:13:11;7.9;97.9
74484;SHT31;62942;52.462;10.846;2022-10-23T06:14:21;8;97.9
74484;SHT31;62942;52.462;10.846;2022-10-23T06:15:31;8;97.9
74484;SHT31;62942;52.462;10.846;2022-10-23T06:16:41;8;98
74484;SHT31;62942;52.462;10.846;2022-10-23T06:17:51;8;98
74484;SHT31;62942;52.462;10.846;2022-10-23T06:18:51;8.1;98
74484;SHT31;62942;52.462;10.846;2022-10-23T06:19:51;8.1;98
74484;SHT31;62942;52.462;10.846;2022-10-23T06:20:51;8.1;98
74484;SHT31;62942;52.462;10.846;2022-10-23T06:22:01;8.1;98
74484;SHT31;62942;52.462;10.846;2022-10-23T06:23:11;8.1;98.1
74484;SHT31;62942;52.462;10.846;2022-10-23T06:24:21;8.2;98.1
74484;SHT31;62942;52.462;10.846;2022-10-23T06:25:21;8.2;98.1
74484;SHT31;62942;52.462;10.846;2022-10-23T06:26:31;8.2;98.1
74484;SHT31;62942;52.462;10.846;2022-10-23T06:27:41;8.2;98.2
74484;SHT31;62942;52.462;10.846;2022-10-23T06:28:51;8.3;98.2
74484;SHT31;62942;52.462;10.846;2022-10-23T06:29:51;8.3;98.2
74484;SHT31;62942;52.462;10.846;2022-10-23T06:30:51;8.4;98.2
74484;SHT31;62942;52.462;10.846;2022-10-23T06:32:01;8.4;98.2
74484;SHT31;62942;52.462;10.846;2022-10-23T06:33:01;8.4;98.2
74484;SHT31;62942;52.462;10.846;2022-10-23T06:34:11;8.5;98.2
74484;SHT31;62942;52.462;10.846;2022-10-23T06:35:21;8.5;98.2
74484;SHT31;62942;52.462;10.846;2022-10-23T06:36:31;8.5;98.3
74484;SHT31;62942;52.462;10.846;2022-10-23T06:37:41;8.5;98.3
74484;SHT31;62942;52.462;10.846;2022-10-23T06:38:41;8.6;98.3
74484;SHT31;62942;52.462;10.846;2022-10-23T06:39:51;8.6;98.3
74484;SHT31;62942;52.462;10.846;2022-10-23T06:41:02;8.6;98.3
74484;SHT31;62942;52.462;10.846;2022-10-23T06:42:11;8.7;98.3
74484;SHT31;62942;52.462;10.846;2022-10-23T06:43:21;8.7;98.4
74484;SHT31;62942;52.462;10.846;2022-10-23T06:44:31;8.7;98.4
74484;SHT31;62942;52.462;10.846;2022-10-23T06:45:31;8.8;98.4
74484;SHT31;62942;52.462;10.846;2022-10-23T06:46:41;8.8;98.4
74484;SHT31;62942;52.462;10.846;2022-10-23T06:47:51;8.9;98.5
74484;SHT31;62942;52.462;10.846;2022-10-23T06:49:01;8.9;98.4
74484;SHT31;62942;52.462;10.846;2022-10-23T06:50:01;9;98.5
74484;SHT31;62942;52.462;10.846;2022-10-23T06:51:12;9;98.5
74484;SHT31;62942;52.462;10.846;2022-10-23T06:52:21;9.1;98.5
74484;SHT31;62942;52.462;10.846;2022-10-23T06:53:31;9.1;98.5
74484;SHT31;62942;52.462;10.846;2022-10-23T06:54:41;9.2;98.5
74484;SHT31;62942;52.462;10.846;2022-10-23T06:55:51;9.2;98.5
74484;SHT31;62942;52.462;10.846;2022-10-23T06:56:51;9.2;98.5
74484;SHT31;62942;52.462;10.846;2022-10-23T06:58:01;9.3;98.5
74484;SHT31;62942;52.462;10.846;2022-10-23T06:59:01;9.3;98.5
74484;SHT31;62942;52.462;10.846;2022-10-23T07:00:02;9.3;98.5
74484;SHT31;62942;52.462;10.846;2022-10-23T07:01:02;9.4;98.6
74484;SHT31;62942;52.462;10.846;2022-10-23T07:02:11;9.4;98.6
74484;SHT31;62942;52.462;10.846;2022-10-23T07:03:21;9.5;98.6
74484;SHT31;62942;52.462;10.846;2022-10-23T07:04:31;9.6;98.6
74484;SHT31;62942;52.462;10.846;2022-10-23T07:05:31;9.6;98.6
74484;SHT31;62942;52.462;10.846;2022-10-23T07:06:41;9.7;98.6
74484;SHT31;62942;52.462;10.846;2022-10-23T07:07:41;9.7;98.6
74484;SHT31;62942;52.462;10.846;2022-10-23T07:08:41;9.7;98.6
74484;SHT31;62942;52.462;10.846;2022-10-23T07:09:51;9.8;98.6